Time;durP1;ratioP1;P1;durP2;ratioP2;P2;SDS_P1;SDS_P2;PMS_P1;PMS_P2;Temp;Humidity;BMP_temperature;BMP_pressure;BME280_temperature;BME280_humidity;BME280_pressure;Samples;Min_cycle;Max_cycle;Signal;HPM_P1;HPM_P2
2021/07/18 00:01:41;;;;;;;10.60;9.50;;;512.70;2380.80;;;;;;5073754;28;20040;-82
2021/07/18 00:04:07;;;;;;;12.90;8.45;;;512.70;2380.80;;;;;;5073625;28;20115;-82
2021/07/18 00:06:34;;;;;;;11.73;8.80;;;512.70;2380.80;;;;;;5074566;28;20024;-82
2021/07/18 00:08:59;;;;;;;11.68;10.20;;;512.70;2380.80;;;;;;5073483;28;20029;-82
2021/07/18 00:11:25;;;;;;;10.65;9.25;;;512.50;2380.80;;;;;;5073372;28;20036;-83
2021/07/18 00:13:51;;;;;;;11.20;10.00;;;512.40;2380.80;;;;;;5073373;28;20488;-82
2021/07/18 00:16:17;;;;;;;12.82;11.00;;;512.50;2380.80;;;;;;5073433;28;20599;-83
2021/07/18 00:18:43;;;;;;;11.18;9.95;;;512.40;2380.80;;;;;;5073537;28;20031;-83
2021/07/18 00:21:09;;;;;;;12.52;10.40;;;512.40;2380.80;;;;;;5072869;28;20048;-80
2021/07/18 00:23:35;;;;;;;16.92;9.88;;;512.30;2380.80;;;;;;5073288;28;20052;-82
2021/07/18 00:26:00;;;;;;;14.13;10.13;;;512.30;2380.80;;;;;;5072998;28;20462;-81
2021/07/18 00:28:26;;;;;;;15.30;10.45;;;512.30;2380.80;;;;;;5074149;28;20032;-81
2021/07/18 00:30:52;;;;;;;12.32;10.23;;;512.40;2380.80;;;;;;5073156;28;20120;-81
2021/07/18 00:33:18;;;;;;;12.35;9.57;;;512.40;2380.80;;;;;;5072915;28;20028;-82
2021/07/18 00:35:44;;;;;;;12.18;9.73;;;512.40;2380.80;;;;;;5072826;28;20051;-82
2021/07/18 00:38:09;;;;;;;14.35;9.48;;;512.50;2380.80;;;;;;5072927;28;20074;-83
2021/07/18 00:40:35;;;;;;;9.10;8.00;;;512.40;2380.80;;;;;;5072956;28;20228;-83
2021/07/18 00:43:01;;;;;;;10.48;8.65;;;512.50;2380.80;;;;;;5072441;28;20020;-82
2021/07/18 00:45:27;;;;;;;11.40;9.32;;;512.60;2380.80;;;;;;5072627;28;20033;-82
2021/07/18 00:47:53;;;;;;;14.13;8.63;;;512.50;2380.80;;;;;;5074228;28;20412;-83
2021/07/18 00:50:19;;;;;;;13.32;10.02;;;512.50;2380.80;;;;;;5072685;28;20477;-83
2021/07/18 00:52:45;;;;;;;10.70;8.70;;;512.50;2380.80;;;;;;5072854;28;20036;-82
2021/07/18 00:55:13;;;;;;;12.50;10.15;;;512.30;2380.80;;;;;;5072602;28;20483;-82
2021/07/18 00:57:43;;;;;;;11.23;9.05;;;512.30;2380.80;;;;;;5072838;28;20106;-82
2021/07/18 01:00:11;;;;;;;12.55;9.93;;;512.30;2380.80;;;;;;5072838;28;20127;-83
2021/07/18 01:02:38;;;;;;;11.30;9.55;;;512.30;2380.80;;;;;;5072595;28;20071;-83
2021/07/18 01:05:06;;;;;;;12.23;8.43;;;512.30;2380.80;;;;;;5072705;28;20374;-83
2021/07/18 01:07:33;;;;;;;12.48;9.10;;;512.40;2380.80;;;;;;5072834;28;20376;-82
2021/07/18 01:09:59;;;;;;;15.63;9.40;;;512.50;2380.80;;;;;;5072563;28;20027;-83
2021/07/18 01:12:25;;;;;;;13.00;9.98;;;512.50;2380.80;;;;;;5072773;28;20431;-84
2021/07/18 01:14:51;;;;;;;12.98;9.43;;;512.20;2380.80;;;;;;5072925;28;20082;-83
2021/07/18 01:17:17;;;;;;;14.38;9.27;;;512.40;2380.80;;;;;;5072727;28;20025;-85
2021/07/18 01:19:43;;;;;;;10.45;8.02;;;512.30;2380.80;;;;;;5072868;28;20029;-84
2021/07/18 01:22:09;;;;;;;12.43;8.35;;;512.40;2380.80;;;;;;5072417;28;20569;-84
2021/07/18 01:24:35;;;;;;;11.73;8.75;;;512.40;2380.80;;;;;;5072624;28;20055;-83
2021/07/18 01:27:05;;;;;;;9.90;8.05;;;512.50;2380.80;;;;;;5072713;28;20035;-83
2021/07/18 01:29:34;;;;;;;9.68;8.52;;;512.40;2380.80;;;;;;5072796;28;20479;-82
2021/07/18 01:32:01;;;;;;;11.18;8.55;;;512.40;2380.80;;;;;;5073537;28;20029;-83
2021/07/18 01:34:27;;;;;;;12.77;9.07;;;512.40;2380.80;;;;;;5072454;28;20056;-84
2021/07/18 01:36:53;;;;;;;13.07;10.10;;;512.40;2380.80;;;;;;5072765;28;20428;-84
2021/07/18 01:39:20;;;;;;;11.13;10.00;;;512.40;2380.80;;;;;;5072320;28;20050;-84
2021/07/18 01:41:48;;;;;;;13.45;11.55;;;512.40;2380.80;;;;;;5072402;28;20452;-83
2021/07/18 01:44:14;;;;;;;15.82;12.05;;;512.40;2380.80;;;;;;5072296;28;20029;-82
2021/07/18 01:46:40;;;;;;;14.27;12.70;;;512.40;2380.80;;;;;;5072559;28;20024;-82
2021/07/18 01:49:08;;;;;;;17.75;12.65;;;512.40;2380.80;;;;;;5072556;28;20056;-82
2021/07/18 01:51:35;;;;;;;16.63;13.35;;;512.20;2380.80;;;;;;5072367;28;20072;-81
2021/07/18 01:54:05;;;;;;;14.30;12.10;;;512.30;2380.80;;;;;;5073830;28;20127;-82
2021/07/18 01:56:31;;;;;;;14.45;11.68;;;512.10;2380.80;;;;;;5072295;28;20052;-83
2021/07/18 01:58:57;;;;;;;14.38;10.73;;;512.10;2380.80;;;;;;5076425;28;20032;-82
2021/07/18 02:01:31;;;;;;;13.68;11.70;;;512.00;2380.80;;;;;;5075926;28;20024;-84
2021/07/18 02:03:58;;;;;;;15.05;11.30;;;512.00;2380.80;;;;;;5075980;28;20025;-82
2021/07/18 02:06:26;;;;;;;18.83;11.77;;;512.10;2380.80;;;;;;5075844;28;20027;-82
2021/07/18 02:08:57;;;;;;;14.57;12.10;;;512.20;2380.80;;;;;;5076109;28;20119;-83
2021/07/18 02:11:24;;;;;;;16.35;11.77;;;512.10;2380.80;;;;;;5075979;28;20518;-82
2021/07/18 02:13:55;;;;;;;14.82;12.07;;;512.20;2380.80;;;;;;5075521;28;20024;-83
2021/07/18 02:16:22;;;;;;;21.67;12.02;;;512.10;2380.80;;;;;;5075939;28;20028;-83
2021/07/18 02:18:48;;;;;;;16.67;12.10;;;512.10;2380.80;;;;;;5075960;28;20043;-83
2021/07/18 02:21:17;;;;;;;15.50;12.88;;;512.00;2380.80;;;;;;5075423;28;20090;-83
2021/07/18 02:23:43;;;;;;;17.65;12.25;;;487.10;2380.80;;;;;;5075587;28;20032;-83
2021/07/18 02:26:09;;;;;;;15.55;13.30;;;487.30;2380.80;;;;;;5075466;28;20024;-83
2021/07/18 02:28:35;;;;;;;17.02;13.07;;;512.00;2380.80;;;;;;5075293;28;20454;-83
2021/07/18 02:31:05;;;;;;;20.02;14.75;;;487.30;2380.80;;;;;;5075075;28;20051;-83
2021/07/18 02:33:34;;;;;;;15.93;13.15;;;487.30;2380.80;;;;;;5074929;28;20367;-83
2021/07/18 02:36:02;;;;;;;13.38;11.98;;;487.30;2380.80;;;;;;5074933;28;20032;-84
2021/07/18 02:38:29;;;;;;;16.85;13.10;;;512.00;2380.80;;;;;;5075519;28;20025;-83
2021/07/18 02:40:55;;;;;;;22.58;14.55;;;512.20;2380.80;;;;;;5075320;28;20380;-83
2021/07/18 02:43:20;;;;;;;20.75;14.43;;;512.00;2380.80;;;;;;5075124;28;20119;-81
2021/07/18 02:45:46;;;;;;;17.13;14.68;;;487.20;2380.80;;;;;;5074559;28;20086;-82
2021/07/18 02:48:12;;;;;;;16.75;14.55;;;487.20;2380.80;;;;;;5074547;28;20097;-82
2021/07/18 02:50:38;;;;;;;17.25;13.80;;;487.10;2380.80;;;;;;5074573;28;20081;-82
2021/07/18 02:53:04;;;;;;;18.50;13.93;;;487.20;2380.80;;;;;;5075214;28;20044;-82
2021/07/18 02:55:30;;;;;;;16.50;13.10;;;487.20;2380.80;;;;;;5076302;28;20066;-82
2021/07/18 02:57:56;;;;;;;13.80;12.05;;;487.20;2380.80;;;;;;5074896;28;20024;-82
2021/07/18 03:00:25;;;;;;;14.35;12.85;;;487.10;2380.80;;;;;;5074366;28;20024;-82
2021/07/18 03:02:52;;;;;;;13.90;12.40;;;487.20;2380.80;;;;;;5074045;28;20451;-83
2021/07/18 03:05:18;;;;;;;14.80;11.77;;;487.20;2380.80;;;;;;5075536;28;20025;-82
2021/07/18 03:07:44;;;;;;;19.20;11.90;;;487.10;2380.80;;;;;;5074645;28;20105;-82
2021/07/18 03:10:12;;;;;;;18.05;12.15;;;487.30;2380.80;;;;;;5074480;28;20102;-83
2021/07/18 03:12:38;;;;;;;14.77;13.27;;;487.30;2380.80;;;;;;5074542;28;20374;-83
2021/07/18 03:15:13;;;;;;;15.52;12.13;;;487.20;2380.80;;;;;;5074314;28;20025;-81
2021/07/18 03:17:39;;;;;;;17.45;14.95;;;487.30;2380.80;;;;;;5074752;28;20469;-83
2021/07/18 03:20:07;;;;;;;21.88;17.40;;;512.00;2380.80;;;;;;5074858;28;20025;-83
2021/07/18 03:22:33;;;;;;;25.30;19.85;;;512.10;2380.80;;;;;;5073908;28;20147;-84
2021/07/18 03:25:00;;;;;;;22.75;18.25;;;512.10;2380.80;;;;;;5074692;28;20203;-82
2021/07/18 03:27:26;;;;;;;16.83;14.43;;;512.10;2380.80;;;;;;5074548;28;20434;-83
2021/07/18 03:29:52;;;;;;;17.20;13.57;;;512.00;2380.80;;;;;;5074312;28;20063;-83
2021/07/18 03:32:18;;;;;;;19.70;15.13;;;512.00;2380.80;;;;;;5074289;28;20025;-83
2021/07/18 03:34:44;;;;;;;19.52;13.50;;;512.30;2380.80;;;;;;5074227;28;20028;-83
2021/07/18 03:37:09;;;;;;;16.20;14.50;;;512.00;2380.80;;;;;;5074129;28;20568;-83
2021/07/18 03:39:35;;;;;;;19.75;15.93;;;512.00;2380.80;;;;;;5074280;28;20052;-83
2021/07/18 03:42:01;;;;;;;18.95;15.38;;;512.00;2380.80;;;;;;5074044;28;20085;-82
2021/07/18 03:44:27;;;;;;;19.63;15.57;;;512.00;2380.80;;;;;;5075122;28;20459;-84
2021/07/18 03:46:53;;;;;;;19.25;15.10;;;512.00;2380.80;;;;;;5074058;28;20029;-83
2021/07/18 03:49:19;;;;;;;14.68;13.10;;;512.00;2380.80;;;;;;5074063;28;20458;-83
2021/07/18 03:51:45;;;;;;;13.75;12.30;;;512.00;2380.80;;;;;;5073607;28;20028;-83
2021/07/18 03:54:11;;;;;;;14.13;11.07;;;512.10;2380.80;;;;;;5073965;28;20031;-83
2021/07/18 03:56:36;;;;;;;11.35;10.15;;;512.10;2380.80;;;;;;5073792;28;20025;-83
2021/07/18 03:59:02;;;;;;;13.77;10.70;;;512.10;2380.80;;;;;;5073675;28;20048;-83
2021/07/18 04:01:28;;;;;;;14.02;11.13;;;512.10;2380.80;;;;;;5073832;28;20416;-85
2021/07/18 04:03:54;;;;;;;15.05;11.45;;;512.10;2380.80;;;;;;5073844;28;20028;-82
2021/07/18 04:06:20;;;;;;;12.70;11.15;;;512.00;2380.80;;;;;;5073618;28;20082;-82
2021/07/18 04:08:46;;;;;;;12.65;10.07;;;512.00;2380.80;;;;;;5073614;28;20393;-84
2021/07/18 04:11:12;;;;;;;14.98;11.60;;;512.20;2380.80;;;;;;5073837;28;20535;-82
2021/07/18 04:13:40;;;;;;;17.35;11.93;;;487.30;2380.80;;;;;;5073551;28;20032;-85
2021/07/18 04:16:06;;;;;;;15.27;11.55;;;487.30;2380.80;;;;;;5074707;28;20024;-84
2021/07/18 04:18:33;;;;;;;13.85;10.93;;;487.30;2380.80;;;;;;5073301;28;20025;-84
2021/07/18 04:21:00;;;;;;;13.65;11.77;;;487.20;2380.80;;;;;;5072681;28;20485;-84
2021/07/18 04:23:26;;;;;;;13.20;11.02;;;487.00;2380.80;;;;;;5073332;28;20051;-84
2021/07/18 04:25:52;;;;;;;18.73;13.00;;;487.00;2380.80;;;;;;5073327;28;20028;-84
2021/07/18 04:28:18;;;;;;;13.68;12.23;;;487.00;2380.80;;;;;;5073244;28;20382;-83
2021/07/18 04:30:44;;;;;;;16.23;11.98;;;487.00;2380.80;;;;;;5072735;28;20048;-82
2021/07/18 04:33:10;;;;;;;17.05;12.30;;;487.30;2380.80;;;;;;5072952;28;20025;-82
2021/07/18 04:35:36;;;;;;;17.05;10.07;;;487.30;2380.80;;;;;;5073114;28;20027;-83
2021/07/18 04:38:03;;;;;;;12.93;11.63;;;487.30;2380.80;;;;;;5073242;28;20021;-83
2021/07/18 04:40:29;;;;;;;15.70;12.25;;;512.00;2380.80;;;;;;5072689;28;20667;-82
2021/07/18 04:42:55;;;;;;;15.13;12.23;;;512.10;2380.80;;;;;;5073131;28;20028;-82
2021/07/18 04:45:21;;;;;;;15.95;14.13;;;512.20;2380.80;;;;;;5072869;28;20115;-84
2021/07/18 04:47:49;;;;;;;16.88;13.75;;;487.30;2380.80;;;;;;5072861;28;20036;-84
2021/07/18 04:50:16;;;;;;;17.77;13.25;;;487.30;2380.80;;;;;;5073245;28;20469;-82
2021/07/18 04:52:43;;;;;;;16.23;13.05;;;487.30;2380.80;;;;;;5072914;28;20099;-83
2021/07/18 04:55:10;;;;;;;18.10;14.02;;;487.30;2380.80;;;;;;5072940;28;20025;-82
2021/07/18 04:57:37;;;;;;;15.93;14.32;;;487.30;2380.80;;;;;;5073114;28;20028;-85
2021/07/18 05:00:11;;;;;;;15.48;13.85;;;512.20;2380.80;;;;;;5072522;28;20024;-81
2021/07/18 05:02:39;;;;;;;16.60;13.75;;;512.30;2380.80;;;;;;5073039;28;20062;-83
2021/07/18 05:05:06;;;;;;;15.45;13.02;;;512.40;2380.80;;;;;;5072857;28;20067;-82
2021/07/18 05:07:31;;;;;;;20.52;14.18;;;512.30;2380.80;;;;;;5072649;28;20025;-82
2021/07/18 05:09:57;;;;;;;18.70;14.07;;;512.30;2380.80;;;;;;5073012;28;20028;-82
2021/07/18 05:12:23;;;;;;;16.88;13.43;;;512.30;2380.80;;;;;;5072723;28;20408;-84
2021/07/18 05:14:49;;;;;;;19.60;13.82;;;512.30;2380.80;;;;;;5072636;28;20035;-83
2021/07/18 05:17:16;;;;;;;17.42;14.43;;;512.40;2380.80;;;;;;5072811;28;20016;-82
2021/07/18 05:19:42;;;;;;;15.10;13.50;;;512.60;2380.80;;;;;;5072823;28;20024;-82
2021/07/18 05:22:09;;;;;;;16.02;12.80;;;512.60;2380.80;;;;;;5073317;28;20048;-83
2021/07/18 05:24:35;;;;;;;17.95;14.85;;;512.60;2380.80;;;;;;5072669;28;20031;-85
2021/07/18 05:27:01;;;;;;;17.33;12.82;;;512.60;2380.80;;;;;;5073915;28;20056;-84
2021/07/18 05:29:27;;;;;;;17.17;13.57;;;512.80;2380.80;;;;;;5072449;28;20473;-83
2021/07/18 05:31:53;;;;;;;15.90;14.30;;;512.90;2380.80;;;;;;5072405;28;20028;-83
2021/07/18 05:34:19;;;;;;;11.98;10.80;;;512.80;2380.80;;;;;;5076593;28;20051;-82
2021/07/18 05:36:45;;;;;;;12.68;11.45;;;537.60;2406.40;;;;;;5076604;28;20021;-83
2021/07/18 05:39:11;;;;;;;16.58;12.32;;;537.60;2406.40;;;;;;5077527;28;20458;-83
2021/07/18 05:41:37;;;;;;;11.95;10.82;;;512.90;2380.80;;;;;;5076813;28;20070;-83
2021/07/18 05:44:03;;;;;;;16.00;12.52;;;512.70;2380.80;;;;;;5076412;28;20155;-84
2021/07/18 05:46:29;;;;;;;14.90;12.32;;;512.70;2380.80;;;;;;5076493;28;20032;-86
2021/07/18 05:48:55;;;;;;;13.43;10.82;;;512.80;2380.80;;;;;;5076289;28;20021;-82
2021/07/18 05:51:21;;;;;;;15.05;12.30;;;537.60;2406.40;;;;;;5075971;28;20036;-84
2021/07/18 05:53:46;;;;;;;15.40;11.15;;;537.70;2406.40;;;;;;5076256;28;20029;-84
2021/07/18 05:56:12;;;;;;;14.05;9.63;;;537.60;2406.40;;;;;;5076113;28;20029;-83
2021/07/18 05:58:38;;;;;;;12.05;9.52;;;512.90;2380.80;;;;;;5076224;28;20082;-85
2021/07/18 06:01:04;;;;;;;11.40;9.57;;;537.60;2406.40;;;;;;5076128;28;20124;-83
2021/07/18 06:03:31;;;;;;;14.45;10.93;;;537.60;2406.40;;;;;;5075949;28;20116;-84
2021/07/18 06:05:57;;;;;;;12.63;9.93;;;537.70;2406.40;;;;;;5076187;28;20024;-85
2021/07/18 06:08:23;;;;;;;14.82;11.77;;;537.70;2406.40;;;;;;5075997;28;20021;-84
2021/07/18 06:10:49;;;;;;;15.60;12.02;;;537.90;2406.40;;;;;;5075794;28;20029;-84
2021/07/18 06:13:15;;;;;;;14.40;11.55;;;537.90;2406.40;;;;;;5075972;28;20036;-85
2021/07/18 06:15:40;;;;;;;16.73;12.18;;;537.90;2406.40;;;;;;5075855;28;20021;-83
2021/07/18 06:18:06;;;;;;;14.90;12.23;;;537.90;2406.40;;;;;;5075656;28;20020;-83
2021/07/18 06:20:32;;;;;;;13.30;11.60;;;538.00;2406.40;;;;;;5075414;28;20032;-81
2021/07/18 06:22:58;;;;;;;10.90;9.77;;;538.10;2406.40;;;;;;5075470;28;20032;-82
2021/07/18 06:25:24;;;;;;;12.70;10.75;;;538.00;2406.40;;;;;;5074971;28;20126;-79
2021/07/18 06:27:50;;;;;;;11.50;10.15;;;538.00;2406.40;;;;;;5076769;28;20031;-82
2021/07/18 06:30:16;;;;;;;11.68;10.07;;;537.90;2406.40;;;;;;5075527;28;20383;-81
2021/07/18 06:32:42;;;;;;;13.73;12.32;;;538.00;2406.40;;;;;;5076550;28;20063;-81
2021/07/18 06:35:09;;;;;;;13.43;12.02;;;538.00;2406.40;;;;;;5075452;28;20052;-80
2021/07/18 06:37:35;;;;;;;12.65;11.43;;;538.10;2406.40;;;;;;5076523;28;20025;-82
2021/07/18 06:40:04;;;;;;;12.20;10.57;;;538.00;2406.40;;;;;;5075464;28;20105;-83
2021/07/18 06:42:30;;;;;;;11.73;10.52;;;538.00;2406.40;;;;;;5075446;28;20032;-83
2021/07/18 06:44:59;;;;;;;13.05;10.23;;;538.20;2406.40;;;;;;5074603;28;20033;-83
2021/07/18 06:47:28;;;;;;;11.85;10.57;;;538.30;2406.40;;;;;;5075342;28;20056;-84
2021/07/18 06:49:55;;;;;;;12.93;11.63;;;538.50;2406.40;;;;;;5075185;28;20381;-84
2021/07/18 06:52:21;;;;;;;13.77;10.23;;;538.50;2406.40;;;;;;5076110;28;20039;-82
2021/07/18 06:54:47;;;;;;;12.55;10.75;;;563.20;2432.00;;;;;;5076575;28;20107;-81
2021/07/18 06:57:13;;;;;;;12.40;9.57;;;538.50;2406.40;;;;;;5075130;28;20119;-82
2021/07/18 06:59:39;;;;;;;12.85;10.35;;;538.40;2406.40;;;;;;5074981;28;20078;-81
2021/07/18 07:02:05;;;;;;;13.77;11.52;;;538.30;2406.40;;;;;;5074922;28;20035;-83
2021/07/18 07:04:30;;;;;;;13.68;10.20;;;538.30;2406.40;;;;;;5076231;28;20024;-82
2021/07/18 07:06:56;;;;;;;13.93;9.88;;;538.40;2406.40;;;;;;5074843;28;20135;-81
2021/07/18 07:09:22;;;;;;;12.35;11.05;;;538.50;2406.40;;;;;;5074766;28;20485;-82
2021/07/18 07:11:48;;;;;;;12.32;9.85;;;563.20;2432.00;;;;;;5074663;28;20028;-83
2021/07/18 07:14:14;;;;;;;14.40;10.23;;;563.20;2432.00;;;;;;5075849;28;20028;-83
2021/07/18 07:16:40;;;;;;;13.32;10.15;;;563.40;2432.00;;;;;;5074750;28;20028;-83
2021/07/18 07:19:06;;;;;;;12.27;9.65;;;563.40;2432.00;;;;;;5074607;28;20025;-83
2021/07/18 07:21:32;;;;;;;12.48;10.07;;;563.30;2432.00;;;;;;5075775;28;20095;-84
2021/07/18 07:23:57;;;;;;;14.07;8.77;;;563.40;2432.00;;;;;;5074553;28;20024;-84
2021/07/18 07:26:23;;;;;;;8.85;7.95;;;563.60;2432.00;;;;;;5074080;28;20035;-83
2021/07/18 07:28:49;;;;;;;11.38;9.73;;;563.50;2432.00;;;;;;5074589;28;20125;-84
2021/07/18 07:31:15;;;;;;;15.32;9.60;;;563.60;2432.00;;;;;;5074272;28;20064;-84
2021/07/18 07:33:41;;;;;;;27.02;10.57;;;563.60;2432.00;;;;;;5074320;28;20024;-83
2021/07/18 07:36:07;;;;;;;18.02;9.23;;;563.70;2432.00;;;;;;5074319;28;20024;-83
2021/07/18 07:38:33;;;;;;;18.45;8.73;;;563.90;2432.00;;;;;;5075218;28;20032;-84
2021/07/18 07:41:00;;;;;;;13.73;9.07;;;563.80;2432.00;;;;;;5073772;28;20067;-83
2021/07/18 07:43:26;;;;;;;11.32;8.43;;;563.80;2432.00;;;;;;5074104;28;20128;-82
2021/07/18 07:45:52;;;;;;;12.55;9.25;;;564.00;2432.00;;;;;;5074188;28;20056;-83
2021/07/18 07:48:18;;;;;;;10.55;8.60;;;564.00;2432.00;;;;;;5074803;28;20078;-82
2021/07/18 07:50:44;;;;;;;17.40;11.40;;;564.10;2432.00;;;;;;5073997;28;20024;-83
2021/07/18 07:53:10;;;;;;;12.57;9.63;;;564.10;2432.00;;;;;;5074126;28;20029;-85
2021/07/18 07:55:36;;;;;;;12.20;9.88;;;588.90;2432.00;;;;;;5073129;28;20028;-84
2021/07/18 07:58:05;;;;;;;13.30;10.35;;;589.00;2432.00;;;;;;5074856;28;20048;-82
2021/07/18 08:00:31;;;;;;;14.07;12.52;;;589.00;2432.00;;;;;;5073756;28;20021;-85
2021/07/18 08:02:57;;;;;;;12.75;9.88;;;589.00;2432.00;;;;;;5073860;28;20377;-85
2021/07/18 08:05:23;;;;;;;17.40;14.85;;;589.10;2432.00;;;;;;5074122;28;20028;-85
2021/07/18 08:07:49;;;;;;;12.27;9.95;;;589.00;2432.00;;;;;;5073985;28;20028;-85
2021/07/18 08:10:17;;;;;;;14.13;10.52;;;589.00;2432.00;;;;;;5073555;28;20033;-84
2021/07/18 08:12:44;;;;;;;11.88;9.43;;;589.10;2432.00;;;;;;5073670;28;20054;-86
2021/07/18 08:15:12;;;;;;;16.27;13.52;;;589.10;2432.00;;;;;;5074954;28;20450;-85
2021/07/18 08:17:39;;;;;;;15.57;11.05;;;589.40;2432.00;;;;;;5073699;28;20025;-85
2021/07/18 08:20:11;;;;;;;13.02;10.00;;;589.40;2432.00;;;;;;5073738;28;20115;-84
2021/07/18 08:22:38;;;;;;;18.42;12.73;;;589.50;2432.00;;;;;;5074723;28;20049;-83
2021/07/18 08:25:06;;;;;;;12.95;9.55;;;589.70;2432.00;;;;;;5073587;28;20035;-86
2021/07/18 08:27:32;;;;;;;13.13;9.63;;;589.70;2432.00;;;;;;5073829;28;20092;-86
2021/07/18 08:29:58;;;;;;;12.85;9.55;;;614.40;2432.00;;;;;;5073164;28;20472;-86
2021/07/18 08:32:24;;;;;;;10.25;9.13;;;614.40;2432.00;;;;;;5072828;28;20039;-85
2021/07/18 08:34:50;;;;;;;11.43;9.30;;;614.50;2432.00;;;;;;5073367;28;20036;-86
2021/07/18 08:37:16;;;;;;;10.68;9.52;;;614.40;2432.00;;;;;;5072903;28;20032;-86
2021/07/18 08:39:42;;;;;;;12.77;8.75;;;614.40;2432.00;;;;;;5073506;28;20377;-86
2021/07/18 08:42:15;;;;;;;11.98;9.27;;;589.70;2432.00;;;;;;5073459;28;20028;-85
2021/07/18 08:44:41;;;;;;;10.18;8.93;;;589.70;2432.00;;;;;;5073196;28;20062;-85
2021/07/18 08:47:07;;;;;;;14.55;9.15;;;589.70;2432.00;;;;;;5073431;28;20095;-86
2021/07/18 08:49:33;;;;;;;13.65;10.10;;;614.40;2432.00;;;;;;5073269;28;20024;-86
2021/07/18 08:52:00;;;;;;;16.08;9.40;;;589.70;2432.00;;;;;;5073241;28;20122;-85
2021/07/18 08:54:26;;;;;;;12.82;9.57;;;614.40;2432.00;;;;;;5073461;28;20024;-85
2021/07/18 08:56:56;;;;;;;10.65;9.55;;;589.70;2432.00;;;;;;5073385;28;20024;-85
2021/07/18 08:59:22;;;;;;;11.70;9.75;;;614.40;2432.00;;;;;;5073184;28;20126;-85
2021/07/18 09:01:48;;;;;;;12.13;10.05;;;589.70;2432.00;;;;;;5073296;28;20052;-85
2021/07/18 09:04:14;;;;;;;14.07;10.38;;;614.50;2432.00;;;;;;5073265;28;20070;-87
2021/07/18 09:06:40;;;;;;;12.48;9.75;;;614.50;2432.00;;;;;;5072814;28;20055;-85
2021/07/18 09:09:08;;;;;;;13.27;10.25;;;614.50;2432.00;;;;;;5073030;28;20029;-86
2021/07/18 09:11:34;;;;;;;12.07;10.30;;;614.80;2432.00;;;;;;5073157;28;20029;-86
2021/07/18 09:14:04;;;;;;;16.92;10.70;;;614.70;2432.00;;;;;;5072917;28;20024;-86
2021/07/18 09:16:36;;;;;;;14.82;9.40;;;614.90;2432.00;;;;;;5073271;28;20027;-85
2021/07/18 09:19:29;;;;;;;14.13;9.18;;;615.20;2432.00;;;;;;5073071;28;20082;-86
2021/07/18 09:22:04;;;;;;;14.13;11.60;;;615.10;2432.00;;;;;;5075920;28;20052;-86
2021/07/18 09:24:40;;;;;;;11.52;9.45;;;615.20;2432.00;;;;;;5076626;28;20082;-86
2021/07/18 09:27:26;;;;;;;12.55;10.05;;;615.30;2432.00;;;;;;5075689;28;20051;-88
2021/07/18 09:29:55;;;;;;;11.63;9.00;;;640.20;2432.00;;;;;;5075159;28;20025;-87
2021/07/18 09:32:26;;;;;;;11.05;9.25;;;640.20;2432.00;;;;;;5072984;28;20127;-88
2021/07/18 09:34:52;;;;;;;12.27;10.50;;;640.10;2432.00;;;;;;5072982;28;20033;-87
2021/07/18 09:37:21;;;;;;;12.77;9.23;;;640.20;2432.00;;;;;;5073238;28;20082;-87
2021/07/18 09:39:51;;;;;;;15.68;9.38;;;640.30;2432.00;;;;;;5073026;28;20029;-87
2021/07/18 09:42:48;;;;;;;13.48;9.75;;;640.40;2432.00;;;;;;5072910;28;20028;-87
2021/07/18 09:45:16;;;;;;;18.83;9.80;;;640.60;2432.00;;;;;;5062142;28;20024;-87
2021/07/18 09:47:54;;;;;;;12.43;8.95;;;640.70;2432.00;;;;;;5059066;28;20124;-86
2021/07/18 09:50:24;;;;;;;9.75;8.75;;;640.70;2432.00;;;;;;5054715;28;20033;-83
2021/07/18 09:52:50;;;;;;;11.13;8.85;;;640.60;2432.00;;;;;;5062928;28;20024;-82
2021/07/18 09:55:25;;;;;;;9.43;8.43;;;640.60;2432.00;;;;;;5072530;28;20423;-84
2021/07/18 09:57:52;;;;;;;10.95;8.73;;;640.60;2432.00;;;;;;5074039;28;20047;-85
2021/07/18 10:00:34;;;;;;;10.45;8.45;;;640.60;2432.00;;;;;;5073567;28;20025;-85
2021/07/18 10:03:09;;;;;;;;;;;640.60;2432.00;;;;;;5068675;28;20035;-85
2021/07/18 10:05:34;;;;;;;9.80;8.32;;;640.50;2432.00;;;;;;5072997;28;19905;-88
2021/07/18 10:08:09;;;;;;;14.93;8.70;;;640.80;2432.00;;;;;;5073535;28;20055;-88
2021/07/18 10:10:36;;;;;;;11.73;8.15;;;665.70;2432.00;;;;;;5073679;28;20024;-87
2021/07/18 10:13:04;;;;;;;9.90;7.88;;;665.70;2432.00;;;;;;5072512;28;20023;-87
2021/07/18 10:15:31;;;;;;;10.00;8.73;;;665.70;2432.00;;;;;;5072286;28;20479;-87
2021/07/18 10:17:57;;;;;;;13.27;9.32;;;665.60;2432.00;;;;;;5072673;28;20029;-87
2021/07/18 10:20:27;;;;;;;13.23;8.82;;;665.60;2432.00;;;;;;5077463;28;20055;-87
2021/07/18 10:22:55;;;;;;;17.90;9.63;;;665.60;2432.00;;;;;;5076115;28;20053;-86
2021/07/18 10:25:23;;;;;;;10.38;8.35;;;640.90;2432.00;;;;;;5076005;28;20074;-87
2021/07/18 10:27:50;;;;;;;11.45;8.57;;;665.60;2432.00;;;;;;5076649;28;20028;-86
2021/07/18 10:30:19;;;;;;;11.93;8.48;;;665.70;2432.00;;;;;;5077512;28;20029;-87
2021/07/18 10:32:48;;;;;;;10.98;8.73;;;665.90;2432.00;;;;;;5076299;28;20035;-87
2021/07/18 10:35:14;;;;;;;9.35;8.05;;;666.20;2432.00;;;;;;5076099;28;20025;-86
2021/07/18 10:37:41;;;;;;;12.90;8.65;;;666.20;2432.00;;;;;;5075823;28;20023;-85
2021/07/18 10:40:21;;;;;;;9.73;8.73;;;666.10;2432.00;;;;;;5076137;28;20036;-87
2021/07/18 10:42:48;;;;;;;9.90;8.98;;;666.00;2432.00;;;;;;5075802;28;20089;-89
2021/07/18 10:45:17;;;;;;;10.48;9.20;;;665.90;2432.00;;;;;;5075919;28;20025;-86
2021/07/18 10:48:00;;;;;;;13.38;8.85;;;665.90;2432.00;;;;;;5075917;28;20029;-87
2021/07/18 10:50:58;;;;;;;9.38;8.32;;;666.00;2432.00;;;;;;5075669;28;20105;-88
2021/07/18 10:53:28;;;;;;;12.27;8.98;;;666.10;2432.00;;;;;;5067863;28;20047;-87
2021/07/18 10:55:55;;;;;;;10.55;9.25;;;666.30;2432.00;;;;;;5076054;28;20075;-87
2021/07/18 10:58:39;;;;;;;13.23;9.07;;;666.40;2432.00;;;;;;5075647;28;20024;-87
2021/07/18 11:01:11;;;;;;;10.98;8.85;;;691.30;2432.00;;;;;;5077851;28;20377;-87
2021/07/18 11:03:40;;;;;;;11.10;9.20;;;691.30;2432.00;;;;;;5076838;28;20050;-86
2021/07/18 11:06:26;;;;;;;12.10;9.73;;;691.40;2432.00;;;;;;5077442;28;20033;-85
2021/07/18 11:09:12;;;;;;;13.85;9.38;;;691.30;2432.00;;;;;;5079550;28;20025;-86
2021/07/18 11:11:55;;;;;;;17.27;10.13;;;691.20;2432.00;;;;;;5075159;28;20028;-87
2021/07/18 11:14:26;;;;;;;11.20;9.55;;;666.40;2432.00;;;;;;5075667;28;20021;-87
2021/07/18 11:17:00;;;;;;;14.65;10.52;;;666.30;2432.00;;;;;;5076622;28;20032;-86
2021/07/18 11:19:38;;;;;;;12.48;9.80;;;666.30;2432.00;;;;;;5076960;28;20038;-87
2021/07/18 11:22:07;;;;;;;12.75;10.52;;;666.20;2432.00;;;;;;5076582;28;20098;-87
2021/07/18 11:25:02;;;;;;;20.40;11.10;;;666.10;2432.00;;;;;;5075813;28;20028;-86
2021/07/18 11:27:34;;;;;;;12.05;10.77;;;666.00;2432.00;;;;;;5062697;28;20078;-87
2021/07/18 11:30:25;;;;;;;13.68;11.38;;;666.00;2432.00;;;;;;5077306;28;20028;-86
2021/07/18 11:32:53;;;;;;;11.87;10.70;;;665.90;2432.00;;;;;;5078496;28;20039;-86
2021/07/18 11:35:19;;;;;;;13.77;11.90;;;665.70;2432.00;;;;;;5079746;28;20024;-86
2021/07/18 11:37:48;;;;;;;12.88;11.48;;;665.80;2432.00;;;;;;5075005;28;20099;-88
2021/07/18 11:40:15;;;;;;;14.73;11.77;;;665.70;2432.00;;;;;;5076726;28;20095;-86
2021/07/18 11:42:41;;;;;;;13.30;11.40;;;665.60;2432.00;;;;;;5074525;28;20026;-87
2021/07/18 11:45:13;;;;;;;12.38;11.07;;;665.60;2432.00;;;;;;5074729;28;20474;-86
2021/07/18 11:47:40;;;;;;;13.43;12.05;;;640.90;2432.00;;;;;;5074890;28;20028;-87
2021/07/18 11:50:08;;;;;;;12.90;11.60;;;640.90;2432.00;;;;;;5075520;28;20039;-87
2021/07/18 11:52:38;;;;;;;14.35;12.18;;;640.90;2432.00;;;;;;5074901;28;20029;-87
2021/07/18 11:55:04;;;;;;;13.95;11.30;;;640.90;2432.00;;;;;;5075504;28;20082;-86
2021/07/18 11:57:30;;;;;;;13.73;11.60;;;640.50;2432.00;;;;;;5074630;28;20032;-88
2021/07/18 11:59:56;;;;;;;12.57;11.15;;;640.70;2432.00;;;;;;5075209;28;20506;-86
2021/07/18 12:02:22;;;;;;;12.80;11.50;;;640.70;2432.00;;;;;;5074533;28;20025;-85
2021/07/18 12:04:48;;;;;;;17.50;12.25;;;640.70;2432.00;;;;;;5075439;28;20054;-87
2021/07/18 12:07:14;;;;;;;12.43;11.20;;;640.70;2432.00;;;;;;5074111;28;20389;-88